Perdue Hill, Alabama
Current Conditions -  °F | °C
As of 8:07 PM on Friday 19 Dec 2014 (Local Time) from KGZH Reporting Station
Moderate Rain Moderate Rain  
Wind Chill: 44°   Ceiling: 3600
Heat Index: 47°   Visibility: 5mi
Dew Point: 44°   Wind: 6mph
Humidity: 90%   Direction: 20°NNE
Pressure: 30.16"   Gusts: NA
Location:  31.51°N, 87.49°W
Report Text: KGZH 200207Z AUTO 02005KT 5SM RA BR SCT023 BKN036 OVC085 08/07 A3016 RMK AO2 P0002 T00830067
Loading
Personal Weather Stations






























Interactive Weather Map New forecast layout! Learn more

10-Day Weather Forecast

Advertisements
Track Severe Weather on mobile